Time;durP1;ratioP1;P1;durP2;ratioP2;P2;SDS_P1;SDS_P2;PMS_P1;PMS_P2;Temp;Humidity;BMP_temperature;BMP_pressure;BME280_temperature;BME280_humidity;BME280_pressure;Samples;Min_cycle;Max_cycle;Signal;HPM_P1;HPM_P2
2023/10/31 00:00:32;;;;;;;;;;;14.50;59.10;;;;;;4990538;28;87330;-44
2023/10/31 00:02:58;;;;;;;;;;;14.50;59.10;;;;;;4993385;28;87099;-44
2023/10/31 00:05:23;;;;;;;;;;;14.50;59.10;;;;;;4991497;28;87662;-44
2023/10/31 00:07:49;;;;;;;;;;;14.50;59.00;;;;;;4991640;28;89137;-44
2023/10/31 00:10:14;;;;;;;;;;;14.50;59.10;;;;;;5000964;28;87781;-44
2023/10/31 00:12:40;;;;;;;;;;;14.50;59.20;;;;;;4991005;28;89154;-43
2023/10/31 00:15:05;;;;;;;;;;;14.40;59.10;;;;;;4992725;28;88002;-44
2023/10/31 00:17:31;;;;;;;;;;;14.40;59.20;;;;;;4993900;28;87489;-43
2023/10/31 00:19:56;;;;;;;;;;;14.40;59.20;;;;;;4993982;28;88056;-43
2023/10/31 00:22:22;;;;;;;;;;;14.40;59.20;;;;;;4996240;28;87244;-43
2023/10/31 00:24:48;;;;;;;;;;;14.40;59.10;;;;;;4993488;28;88928;-44
2023/10/31 00:27:14;;;;;;;;;;;14.40;59.20;;;;;;4994820;28;88253;-43
2023/10/31 00:29:40;;;;;;;;;;;14.40;59.10;;;;;;4994208;28;87147;-43
2023/10/31 00:32:06;;;;;;;;;;;14.40;59.20;;;;;;4996063;28;87962;-44
2023/10/31 00:34:31;;;;;;;;;;;14.40;59.20;;;;;;4995524;28;87708;-44
2023/10/31 00:36:56;;;;;;;;;;;14.40;59.20;;;;;;4992445;28;88210;-44
2023/10/31 00:39:22;;;;;;;;;;;14.30;59.20;;;;;;4995652;28;88160;-43
2023/10/31 00:41:47;;;;;;;;;;;14.30;59.20;;;;;;4992642;28;87194;-44
2023/10/31 00:44:13;;;;;;;;;;;14.30;59.20;;;;;;4995353;28;87516;-44
2023/10/31 00:46:39;;;;;;;;;;;14.30;59.20;;;;;;4993468;28;89232;-43
2023/10/31 00:49:04;;;;;;;;;;;14.30;59.20;;;;;;4996054;28;86927;-43
2023/10/31 00:51:30;;;;;;;;;;;14.30;59.20;;;;;;4993268;28;87135;-43
2023/10/31 00:53:55;;;;;;;;;;;14.30;59.20;;;;;;4997826;28;87232;-43
2023/10/31 00:56:21;;;;;;;;;;;14.30;59.20;;;;;;4991789;28;88011;-44
2023/10/31 00:58:46;;;;;;;;;;;14.30;59.20;;;;;;4995419;28;88518;-43
2023/10/31 01:01:12;;;;;;;;;;;14.30;59.20;;;;;;4993097;28;87534;-44
2023/10/31 01:03:37;;;;;;;;;;;14.30;59.20;;;;;;4993269;28;89528;-44
2023/10/31 01:06:03;;;;;;;;;;;14.30;59.20;;;;;;4995272;28;88242;-45
2023/10/31 01:08:29;;;;;;;;;;;14.30;59.20;;;;;;4993569;28;87057;-44
2023/10/31 01:10:55;;;;;;;;;;;14.20;59.10;;;;;;4994856;28;87426;-44
2023/10/31 01:13:21;;;;;;;;;;;14.20;59.20;;;;;;4992405;28;87336;-45
2023/10/31 01:15:46;;;;;;;;;;;14.20;59.10;;;;;;4995111;28;87475;-44
2023/10/31 01:18:12;;;;;;;;;;;14.20;59.10;;;;;;4994489;28;88121;-43
2023/10/31 01:20:38;;;;;;;;;;;14.20;59.10;;;;;;4993256;28;88227;-44
2023/10/31 01:23:03;;;;;;;;;;;14.30;59.00;;;;;;4993764;28;88445;-44
2023/10/31 01:25:29;;;;;;;;;;;14.20;59.00;;;;;;4990699;28;88135;-45
2023/10/31 01:27:54;;;;;;;;;;;14.20;58.90;;;;;;4992755;28;87125;-44
2023/10/31 01:30:20;;;;;;;;;;;14.20;59.00;;;;;;4995118;28;87390;-43
2023/10/31 01:32:45;;;;;;;;;;;14.20;59.00;;;;;;4991555;28;88201;-44
2023/10/31 01:35:11;;;;;;;;;;;14.20;58.90;;;;;;4993217;28;87416;-44
2023/10/31 01:37:37;;;;;;;;;;;14.20;59.00;;;;;;4997339;28;87161;-44
2023/10/31 01:40:03;;;;;;;;;;;14.20;58.90;;;;;;4992713;28;87499;-43
2023/10/31 01:42:29;;;;;;;;;;;14.20;59.00;;;;;;4992505;28;87717;-44
2023/10/31 01:44:55;;;;;;;;;;;14.20;59.00;;;;;;4993369;28;88194;-44
2023/10/31 01:47:21;;;;;;;;;;;14.20;59.00;;;;;;4991966;28;87574;-44
2023/10/31 01:49:46;;;;;;;;;;;14.20;59.10;;;;;;4995018;28;87670;-45
2023/10/31 01:52:12;;;;;;;;;;;14.20;59.10;;;;;;4993375;28;88270;-44
2023/10/31 01:54:37;;;;;;;;;;;14.20;59.00;;;;;;4992381;28;87085;-45
2023/10/31 01:57:04;;;;;;;;;;;14.20;59.10;;;;;;4993539;28;87479;-43
2023/10/31 01:59:30;;;;;;;;;;;14.20;59.00;;;;;;4996164;28;87807;-45
2023/10/31 02:01:57;;;;;;;;;;;14.20;59.00;;;;;;4992713;28;87404;-44
2023/10/31 02:04:23;;;;;;;;;;;14.10;58.90;;;;;;4994329;28;88376;-44
2023/10/31 02:06:49;;;;;;;;;;;14.20;59.00;;;;;;4991025;28;87126;-43
2023/10/31 02:09:14;;;;;;;;;;;14.10;58.90;;;;;;4993509;28;87944;-44
2023/10/31 02:11:40;;;;;;;;;;;14.10;59.00;;;;;;4992172;28;87469;-43
2023/10/31 02:14:05;;;;;;;;;;;14.10;59.00;;;;;;4993057;28;87134;-44
2023/10/31 02:16:31;;;;;;;;;;;14.10;58.90;;;;;;4990064;28;87463;-44
2023/10/31 02:18:56;;;;;;;;;;;14.10;59.00;;;;;;4993455;28;88217;-44
2023/10/31 02:21:23;;;;;;;;;;;14.10;59.10;;;;;;4994318;28;87452;-44
2023/10/31 02:23:58;;;;;;;;;;;14.10;59.10;;;;;;4990639;28;87557;-44
2023/10/31 02:26:28;;;;;;;;;;;14.10;59.00;;;;;;4993100;28;86387;-44
2023/10/31 02:28:53;;;;;;;;;;;14.00;58.90;;;;;;4993746;28;87078;-43
2023/10/31 02:31:19;;;;;;;;;;;14.00;59.00;;;;;;4990667;28;88041;-43
2023/10/31 02:33:44;;;;;;;;;;;14.00;59.00;;;;;;4990492;28;88798;-44
2023/10/31 02:36:09;;;;;;;;;;;14.10;59.00;;;;;;4993055;28;88524;-43
2023/10/31 02:38:35;;;;;;;;;;;14.00;59.00;;;;;;4991832;28;88353;-44
2023/10/31 02:41:01;;;;;;;;;;;14.00;59.10;;;;;;4995437;28;87168;-44
2023/10/31 02:43:26;;;;;;;;;;;14.00;59.10;;;;;;4991686;28;88040;-43
2023/10/31 02:45:52;;;;;;;;;;;14.00;59.00;;;;;;4993451;28;87143;-43
2023/10/31 02:48:17;;;;;;;;;;;14.00;59.00;;;;;;4990855;28;88128;-43
2023/10/31 02:50:43;;;;;;;;;;;14.00;59.10;;;;;;4994430;28;86400;-44
2023/10/31 02:53:08;;;;;;;;;;;14.00;59.60;;;;;;4990076;28;87076;-45
2023/10/31 02:55:34;;;;;;;;;;;14.00;59.10;;;;;;4993197;28;87607;-44
2023/10/31 02:57:59;;;;;;;;;;;13.90;59.00;;;;;;4991008;28;88996;-44
2023/10/31 03:00:25;;;;;;;;;;;14.00;59.10;;;;;;4992286;28;87068;-45
2023/10/31 03:02:51;;;;;;;;;;;13.90;59.00;;;;;;4995808;28;87413;-45
2023/10/31 03:05:16;;;;;;;;;;;13.90;59.00;;;;;;4991126;28;87135;-43
2023/10/31 03:07:42;;;;;;;;;;;13.90;59.00;;;;;;4993110;28;87138;-43
2023/10/31 03:10:07;;;;;;;;;;;13.90;59.00;;;;;;4993472;28;87701;-44
2023/10/31 03:12:33;;;;;;;;;;;13.90;59.00;;;;;;4990948;28;87220;-45
2023/10/31 03:14:58;;;;;;;;;;;13.90;59.00;;;;;;4993177;28;86587;-44
2023/10/31 03:17:25;;;;;;;;;;;13.90;59.00;;;;;;4991699;28;88089;-44
2023/10/31 03:19:50;;;;;;;;;;;13.90;58.90;;;;;;4991431;28;87562;-44
2023/10/31 03:22:16;;;;;;;;;;;13.90;58.90;;;;;;4992532;28;88016;-43
2023/10/31 03:24:41;;;;;;;;;;;13.90;58.90;;;;;;4993130;28;87871;-44
2023/10/31 03:27:07;;;;;;;;;;;13.80;59.00;;;;;;4993738;28;87609;-43
2023/10/31 03:29:32;;;;;;;;;;;13.80;59.00;;;;;;4990526;28;88226;-45
2023/10/31 03:31:58;;;;;;;;;;;13.80;59.60;;;;;;4992765;28;87061;-43
2023/10/31 03:34:23;;;;;;;;;;;13.80;59.00;;;;;;4991810;28;87741;-44
2023/10/31 03:36:49;;;;;;;;;;;13.80;59.00;;;;;;4990451;28;88130;-44
2023/10/31 03:39:15;;;;;;;;;;;13.80;58.90;;;;;;4993152;28;86521;-44
2023/10/31 03:41:42;;;;;;;;;;;13.80;58.90;;;;;;4990721;28;86992;-43
2023/10/31 03:44:07;;;;;;;;;;;13.80;58.90;;;;;;4992552;28;89475;-44
2023/10/31 03:46:33;;;;;;;;;;;13.80;59.00;;;;;;4992705;28;87996;-43
2023/10/31 03:48:58;;;;;;;;;;;13.70;58.90;;;;;;4993141;28;88103;-44
2023/10/31 03:51:24;;;;;;;;;;;13.70;58.90;;;;;;4994449;28;87145;-43
2023/10/31 03:53:49;;;;;;;;;;;13.70;59.40;;;;;;4993907;28;87782;-43
2023/10/31 03:56:15;;;;;;;;;;;13.70;58.90;;;;;;4995469;28;88653;-43
2023/10/31 03:58:42;;;;;;;;;;;13.70;58.90;;;;;;4993878;28;87036;-45
2023/10/31 04:01:07;;;;;;;;;;;13.70;58.90;;;;;;4996682;28;87124;-44
2023/10/31 04:03:33;;;;;;;;;;;13.70;58.90;;;;;;4993891;28;87492;-44
2023/10/31 04:05:58;;;;;;;;;;;13.70;58.90;;;;;;4995808;28;87219;-43
2023/10/31 04:08:24;;;;;;;;;;;13.70;58.90;;;;;;4996309;28;87869;-43
2023/10/31 04:10:49;;;;;;;;;;;13.70;58.90;;;;;;4994096;28;87942;-43
2023/10/31 04:13:15;;;;;;;;;;;13.70;58.80;;;;;;4995623;28;88289;-44
2023/10/31 04:15:40;;;;;;;;;;;13.70;58.80;;;;;;4981843;27;89275;-44
2023/10/31 04:18:06;;;;;;;;;;;13.70;58.80;;;;;;4996459;28;87166;-43
2023/10/31 04:20:31;;;;;;;;;;;13.60;58.80;;;;;;4993245;28;87522;-43
2023/10/31 04:22:57;;;;;;;;;;;13.60;58.80;;;;;;4995562;28;88006;-44
2023/10/31 04:25:22;;;;;;;;;;;13.60;58.80;;;;;;4993832;28;87265;-43
2023/10/31 04:27:48;;;;;;;;;;;13.60;58.70;;;;;;4997611;28;87369;-44
2023/10/31 04:30:14;;;;;;;;;;;13.60;58.90;;;;;;4994334;28;87381;-44
2023/10/31 04:32:40;;;;;;;;;;;13.60;58.80;;;;;;4995747;28;87518;-44
2023/10/31 04:35:05;;;;;;;;;;;13.60;58.90;;;;;;4991756;28;88317;-43
2023/10/31 04:37:31;;;;;;;;;;;13.60;58.90;;;;;;4996030;28;87179;-43
2023/10/31 04:39:56;;;;;;;;;;;13.60;58.90;;;;;;4993038;28;88720;-44
2023/10/31 04:42:22;;;;;;;;;;;13.50;58.80;;;;;;4994697;28;88259;-43
2023/10/31 04:44:48;;;;;;;;;;;13.60;58.80;;;;;;4994117;28;87134;-44
2023/10/31 04:47:14;;;;;;;;;;;13.60;58.90;;;;;;4994223;28;87424;-43
2023/10/31 04:49:39;;;;;;;;;;;13.50;58.80;;;;;;4997709;28;87883;-43
2023/10/31 04:52:05;;;;;;;;;;;13.60;58.80;;;;;;4992853;28;87483;-43
2023/10/31 04:54:30;;;;;;;;;;;13.50;58.80;;;;;;4994543;28;88341;-43
2023/10/31 04:56:56;;;;;;;;;;;13.50;58.80;;;;;;4992555;28;87086;-45
2023/10/31 04:59:21;;;;;;;;;;;13.50;58.90;;;;;;4991224;28;88159;-44
2023/10/31 05:01:50;;;;;;;;;;;13.50;58.80;;;;;;4991478;28;87821;-45
2023/10/31 05:04:16;;;;;;;;;;;13.50;58.80;;;;;;4994511;28;86983;-43
2023/10/31 05:06:42;;;;;;;;;;;13.50;58.90;;;;;;4994707;28;87658;-44
2023/10/31 05:09:08;;;;;;;;;;;13.50;58.90;;;;;;4986864;28;87892;-43
2023/10/31 05:11:33;;;;;;;;;;;13.50;58.90;;;;;;4995012;28;87595;-43
2023/10/31 05:13:58;;;;;;;;;;;13.50;58.90;;;;;;4994380;28;88044;-43
2023/10/31 05:16:24;;;;;;;;;;;13.40;58.80;;;;;;4994608;28;86370;-44
2023/10/31 05:18:50;;;;;;;;;;;13.40;58.80;;;;;;4994057;28;88189;-44
2023/10/31 05:21:19;;;;;;;;;;;13.40;58.80;;;;;;4992965;28;88192;-43
2023/10/31 05:23:44;;;;;;;;;;;13.50;58.90;;;;;;4994326;28;88222;-43
2023/10/31 05:26:10;;;;;;;;;;;13.40;58.90;;;;;;4991945;28;88443;-43
2023/10/31 05:28:35;;;;;;;;;;;13.40;58.90;;;;;;4994606;28;88225;-44
2023/10/31 05:31:01;;;;;;;;;;;13.40;58.80;;;;;;4992786;28;87103;-43
2023/10/31 05:33:26;;;;;;;;;;;13.40;58.80;;;;;;5000027;28;90813;-44
2023/10/31 05:35:52;;;;;;;;;;;13.40;58.80;;;;;;4992872;28;87104;-43
2023/10/31 05:38:17;;;;;;;;;;;13.40;58.80;;;;;;4991509;28;88934;-43
2023/10/31 05:40:43;;;;;;;;;;;13.40;58.90;;;;;;4990930;28;87365;-43
2023/10/31 05:43:08;;;;;;;;;;;13.40;58.90;;;;;;4995130;28;87157;-44
2023/10/31 05:45:34;;;;;;;;;;;13.40;58.80;;;;;;4990431;28;88203;-44
2023/10/31 05:47:59;;;;;;;;;;;13.40;58.80;;;;;;4994056;28;92831;-43
2023/10/31 05:50:25;;;;;;;;;;;13.30;58.70;;;;;;4989234;28;87161;-43
2023/10/31 05:52:50;;;;;;;;;;;13.40;58.80;;;;;;4992296;28;87577;-43
2023/10/31 05:55:16;;;;;;;;;;;13.40;58.80;;;;;;4989656;28;88201;-46
2023/10/31 05:57:41;;;;;;;;;;;13.30;58.70;;;;;;4989063;28;87701;-44
2023/10/31 06:00:08;;;;;;;;;;;13.40;58.70;;;;;;4989891;28;88110;-44
2023/10/31 06:02:33;;;;;;;;;;;13.30;58.70;;;;;;4993478;28;87151;-43
2023/10/31 06:04:59;;;;;;;;;;;13.30;58.90;;;;;;4990535;28;87293;-43
2023/10/31 06:07:24;;;;;;;;;;;13.30;59.00;;;;;;4988011;28;88267;-45
2023/10/31 06:09:50;;;;;;;;;;;13.30;58.90;;;;;;4990068;28;87012;-44
2023/10/31 06:12:15;;;;;;;;;;;13.30;58.90;;;;;;4992280;28;87977;-44
2023/10/31 06:14:41;;;;;;;;;;;13.30;58.80;;;;;;4988268;28;88027;-43
2023/10/31 06:17:06;;;;;;;;;;;13.30;58.90;;;;;;4994162;28;86987;-43
2023/10/31 06:19:38;;;;;;;;;;;13.30;58.80;;;;;;4990703;28;88120;-43
2023/10/31 06:22:04;;;;;;;;;;;13.30;58.70;;;;;;4992006;28;88346;-44
2023/10/31 06:24:29;;;;;;;;;;;13.30;58.80;;;;;;4987184;28;88515;-43
2023/10/31 06:26:55;;;;;;;;;;;13.30;58.80;;;;;;4990724;28;88082;-43
2023/10/31 06:29:20;;;;;;;;;;;13.30;58.80;;;;;;4994250;28;86510;-43
2023/10/31 06:31:46;;;;;;;;;;;13.30;58.70;;;;;;4989331;28;88245;-43
2023/10/31 06:34:11;;;;;;;;;;;13.30;58.70;;;;;;4990783;28;88851;-43
2023/10/31 06:36:37;;;;;;;;;;;13.30;58.70;;;;;;4992798;28;88130;-44
2023/10/31 06:39:02;;;;;;;;;;;13.30;58.70;;;;;;4990652;28;88181;-43
2023/10/31 06:41:28;;;;;;;;;;;13.30;58.70;;;;;;4989321;28;87059;-45
2023/10/31 06:43:53;;;;;;;;;;;13.30;58.70;;;;;;4992229;28;87252;-43
2023/10/31 06:46:19;;;;;;;;;;;13.30;59.30;;;;;;4992682;28;88222;-44
2023/10/31 06:48:44;;;;;;;;;;;13.30;58.70;;;;;;4992768;28;87713;-43
2023/10/31 06:51:10;;;;;;;;;;;13.30;58.70;;;;;;4986822;28;87549;-43
2023/10/31 06:53:36;;;;;;;;;;;13.30;58.70;;;;;;4992816;28;87031;-44
2023/10/31 06:56:02;;;;;;;;;;;13.40;58.80;;;;;;4991190;28;87160;-44
2023/10/31 06:58:27;;;;;;;;;;;13.40;58.80;;;;;;4995806;28;87579;-45
2023/10/31 07:00:53;;;;;;;;;;;13.40;58.80;;;;;;4987372;28;88603;-44
2023/10/31 07:03:18;;;;;;;;;;;13.30;58.80;;;;;;4987943;28;87309;-43
2023/10/31 07:05:44;;;;;;;;;;;13.30;58.80;;;;;;4992768;28;88174;-43
2023/10/31 07:08:09;;;;;;;;;;;13.30;58.80;;;;;;4994438;28;87144;-43
2023/10/31 07:10:35;;;;;;;;;;;13.30;58.80;;;;;;4985462;28;88729;-43
2023/10/31 07:13:00;;;;;;;;;;;13.30;59.40;;;;;;4988356;28;89372;-44
2023/10/31 07:15:26;;;;;;;;;;;13.30;59.00;;;;;;4992913;28;87101;-44
2023/10/31 07:17:51;;;;;;;;;;;13.30;59.00;;;;;;4996674;28;90548;-44
2023/10/31 07:20:17;;;;;;;;;;;13.30;59.10;;;;;;4993248;28;87974;-44
2023/10/31 07:22:43;;;;;;;;;;;13.30;59.00;;;;;;4990459;28;87799;-43
2023/10/31 07:25:08;;;;;;;;;;;13.30;59.10;;;;;;4993289;28;88924;-46
2023/10/31 07:27:33;;;;;;;;;;;13.30;59.10;;;;;;4995969;28;88877;-44
2023/10/31 07:29:59;;;;;;;;;;;13.30;59.20;;;;;;4994733;28;87486;-43
2023/10/31 07:32:25;;;;;;;;;;;13.30;59.20;;;;;;4993095;28;88064;-44
2023/10/31 07:34:51;;;;;;;;;;;13.30;59.20;;;;;;4994757;28;88659;-43
2023/10/31 07:37:16;;;;;;;;;;;13.30;59.20;;;;;;4991992;28;87617;-43
2023/10/31 07:39:42;;;;;;;;;;;13.30;59.20;;;;;;4990125;28;88396;-43
2023/10/31 07:42:07;;;;;;;;;;;13.30;59.20;;;;;;4999689;28;86401;-43
2023/10/31 07:44:33;;;;;;;;;;;13.30;59.30;;;;;;4993649;28;88120;-45
2023/10/31 07:46:59;;;;;;;;;;;13.30;59.30;;;;;;4990084;28;87211;-43
2023/10/31 07:49:24;;;;;;;;;;;13.30;59.40;;;;;;4990143;28;88030;-44
2023/10/31 07:51:50;;;;;;;;;;;13.30;59.50;;;;;;4995222;28;88168;-43
2023/10/31 07:54:16;;;;;;;;;;;13.30;59.90;;;;;;4992994;28;87450;-43
2023/10/31 07:56:41;;;;;;;;;;;13.20;59.60;;;;;;4990283;28;87371;-44
2023/10/31 07:59:07;;;;;;;;;;;13.30;59.60;;;;;;4992049;28;88577;-43
2023/10/31 08:01:33;;;;;;;;;;;13.30;59.60;;;;;;4996369;28;87168;-43
2023/10/31 08:03:59;;;;;;;;;;;13.20;59.60;;;;;;4994858;28;87884;-44
2023/10/31 08:06:24;;;;;;;;;;;13.30;59.70;;;;;;4992635;28;86394;-44
2023/10/31 08:08:50;;;;;;;;;;;13.30;59.50;;;;;;4993019;28;86980;-44
2023/10/31 08:11:15;;;;;;;;;;;13.30;59.60;;;;;;4994045;28;87896;-43
2023/10/31 08:13:41;;;;;;;;;;;13.30;59.70;;;;;;4993503;28;88218;-43
2023/10/31 08:16:07;;;;;;;;;;;13.30;59.70;;;;;;4989800;28;88494;-43
2023/10/31 08:18:32;;;;;;;;;;;13.30;59.80;;;;;;4995546;28;87799;-45
2023/10/31 08:20:58;;;;;;;;;;;13.30;59.80;;;;;;4993791;28;87005;-43
2023/10/31 08:23:24;;;;;;;;;;;13.30;59.70;;;;;;4997092;28;87345;-44
2023/10/31 08:25:50;;;;;;;;;;;13.30;59.80;;;;;;4988060;28;87184;-44
2023/10/31 08:28:16;;;;;;;;;;;13.30;59.90;;;;;;4991972;28;88677;-44
2023/10/31 08:30:41;;;;;;;;;;;13.30;60.00;;;;;;4993801;28;87286;-43
2023/10/31 08:33:07;;;;;;;;;;;13.30;59.90;;;;;;4991418;28;88053;-45
2023/10/31 08:35:32;;;;;;;;;;;13.30;60.00;;;;;;4992156;28;87460;-43
2023/10/31 08:37:58;;;;;;;;;;;13.30;60.10;;;;;;4991766;28;89183;-44
2023/10/31 08:40:24;;;;;;;;;;;13.30;60.10;;;;;;4996010;28;87120;-43
2023/10/31 08:42:49;;;;;;;;;;;13.30;60.20;;;;;;4991026;28;87510;-44
2023/10/31 08:45:15;;;;;;;;;;;13.30;60.20;;;;;;4996334;28;88172;-43
2023/10/31 08:47:40;;;;;;;;;;;13.40;60.50;;;;;;4993861;28;88666;-45
2023/10/31 08:50:08;;;;;;;;;;;13.40;60.30;;;;;;4991007;28;87981;-44
2023/10/31 08:52:34;;;;;;;;;;;13.40;60.40;;;;;;4995082;28;87160;-44
2023/10/31 08:54:59;;;;;;;;;;;13.40;60.40;;;;;;4992736;28;87289;-43
2023/10/31 08:57:25;;;;;;;;;;;13.40;60.50;;;;;;4992638;28;88208;-44
2023/10/31 08:59:50;;;;;;;;;;;13.40;60.40;;;;;;4989834;28;87593;-43
2023/10/31 09:02:16;;;;;;;;;;;13.40;60.40;;;;;;4991713;28;88218;-43
2023/10/31 09:04:42;;;;;;;;;;;13.40;60.30;;;;;;4991413;28;88118;-45
2023/10/31 09:07:07;;;;;;;;;;;13.40;60.30;;;;;;5004241;28;87233;-44
2023/10/31 09:09:33;;;;;;;;;;;13.40;60.30;;;;;;4988833;28;88013;-44
2023/10/31 09:11:58;;;;;;;;;;;13.40;60.30;;;;;;4990381;28;87315;-44
2023/10/31 09:14:24;;;;;;;;;;;13.40;60.40;;;;;;4992226;28;87488;-44
2023/10/31 09:16:49;;;;;;;;;;;13.50;60.40;;;;;;4994053;28;87998;-44
2023/10/31 09:19:15;;;;;;;;;;;13.50;60.40;;;;;;4989250;28;86470;-44
2023/10/31 09:21:40;;;;;;;;;;;13.50;60.30;;;;;;4992226;28;87410;-44
2023/10/31 09:24:07;;;;;;;;;;;13.50;60.40;;;;;;4991219;28;88108;-44
2023/10/31 09:26:33;;;;;;;;;;;13.50;60.30;;;;;;4993655;28;88502;-45
2023/10/31 09:28:59;;;;;;;;;;;13.50;60.20;;;;;;4994692;28;88427;-43
2023/10/31 09:31:24;;;;;;;;;;;13.50;60.30;;;;;;4991268;28;87351;-45
2023/10/31 09:33:49;;;;;;;;;;;13.50;60.30;;;;;;4994861;28;87521;-43
2023/10/31 09:36:16;;;;;;;;;;;13.50;60.40;;;;;;4993268;28;87127;-43
2023/10/31 09:38:41;;;;;;;;;;;13.50;60.40;;;;;;4987901;28;87200;-45
2023/10/31 09:41:07;;;;;;;;;;;13.60;60.20;;;;;;4988688;28;87482;-44
2023/10/31 09:43:32;;;;;;;;;;;13.60;60.30;;;;;;4994590;28;87330;-43
2023/10/31 09:46:01;;;;;;;;;;;13.60;60.30;;;;;;4993659;28;87159;-44
2023/10/31 09:48:26;;;;;;;;;;;13.60;60.30;;;;;;4987708;28;87543;-44
2023/10/31 09:50:53;;;;;;;;;;;13.60;60.10;;;;;;4993046;28;88684;-43
2023/10/31 09:53:19;;;;;;;;;;;13.60;60.00;;;;;;4994654;28;88295;-44
2023/10/31 09:55:46;;;;;;;;;;;13.70;60.10;;;;;;4987565;28;88668;-44
2023/10/31 09:58:11;;;;;;;;;;;13.70;60.20;;;;;;4988350;28;87190;-44
2023/10/31 10:00:37;;;;;;;;;;;13.70;60.10;;;;;;4991540;28;87257;-44
2023/10/31 10:03:09;;;;;;;;;;;13.70;60.30;;;;;;4992424;28;88264;-43
2023/10/31 10:05:35;;;;;;;;;;;13.70;60.30;;;;;;4992937;28;89016;-43
2023/10/31 10:08:00;;;;;;;;;;;13.70;60.40;;;;;;4988262;28;87313;-44
2023/10/31 10:10:26;;;;;;;;;;;13.70;60.50;;;;;;4993366;28;87882;-44
2023/10/31 10:12:52;;;;;;;;;;;13.70;60.60;;;;;;4994763;28;87184;-43
2023/10/31 10:15:17;;;;;;;;;;;13.70;60.60;;;;;;4986170;28;89222;-43
2023/10/31 10:17:50;;;;;;;;;;;13.80;60.80;;;;;;4991081;28;87096;-44
2023/10/31 10:20:15;;;;;;;;;;;13.80;60.80;;;;;;4993045;28;87559;-45
2023/10/31 10:22:44;;;;;;;;;;;13.80;60.80;;;;;;4995284;28;88481;-44
2023/10/31 10:25:15;;;;;;;;;;;13.80;60.60;;;;;;4988852;28;88085;-43
2023/10/31 10:27:41;;;;;;;;;;;13.80;60.70;;;;;;4990408;28;88844;-44
2023/10/31 10:30:10;;;;;;;;;;;13.80;60.60;;;;;;4991479;28;89554;-44
2023/10/31 10:32:36;;;;;;;;;;;13.80;60.60;;;;;;4994808;28;87170;-45
2023/10/31 10:35:02;;;;;;;;;;;13.90;60.70;;;;;;4990908;28;88034;-43
2023/10/31 10:37:30;;;;;;;;;;;13.90;60.70;;;;;;4990509;28;87069;-43
2023/10/31 10:39:56;;;;;;;;;;;13.90;60.70;;;;;;4990397;28;88471;-44
2023/10/31 10:42:30;;;;;;;;;;;13.90;60.70;;;;;;4990447;28;88839;-44
2023/10/31 10:44:57;;;;;;;;;;;13.90;60.70;;;;;;4986134;28;87938;-45
2023/10/31 10:47:23;;;;;;;;;;;14.00;60.70;;;;;;4993582;28;87115;-44
2023/10/31 10:49:54;;;;;;;;;;;14.00;60.60;;;;;;4988350;28;88157;-43
2023/10/31 10:52:20;;;;;;;;;;;13.90;60.60;;;;;;4987907;28;87105;-43
2023/10/31 10:55:04;;;;;;;;;;;14.00;60.80;;;;;;4992368;28;87391;-44
2023/10/31 10:57:35;;;;;;;;;;;14.00;60.90;;;;;;4991651;28;86420;-44
2023/10/31 11:00:04;;;;;;;;;;;14.00;60.80;;;;;;4989025;28;87075;-43
2023/10/31 11:02:30;;;;;;;;;;;14.00;60.80;;;;;;4992762;28;88283;-43
2023/10/31 11:04:56;;;;;;;;;;;14.00;60.70;;;;;;4993199;28;88124;-44
2023/10/31 11:07:23;;;;;;;;;;;14.00;60.70;;;;;;4998488;28;91629;-43
2023/10/31 11:09:49;;;;;;;;;;;14.10;60.60;;;;;;4990367;28;89349;-45
2023/10/31 11:12:16;;;;;;;;;;;14.00;60.80;;;;;;4986974;28;88796;-44
2023/10/31 11:14:42;;;;;;;;;;;14.10;60.70;;;;;;4992858;28;87369;-43
2023/10/31 11:17:14;;;;;;;;;;;14.10;60.70;;;;;;4994623;28;88007;-44
2023/10/31 11:19:40;;;;;;;;;;;14.10;60.60;;;;;;4986323;28;87227;-44
2023/10/31 11:22:06;;;;;;;;;;;14.10;60.70;;;;;;4986714;28;89036;-43
2023/10/31 11:24:32;;;;;;;;;;;14.10;60.70;;;;;;4992040;28;87097;-44
2023/10/31 11:26:59;;;;;;;;;;;14.10;60.70;;;;;;4989158;28;88642;-44
2023/10/31 11:29:25;;;;;;;;;;;14.10;60.70;;;;;;4985394;28;89071;-44
2023/10/31 11:31:51;;;;;;;;;;;14.20;60.70;;;;;;4988293;28;87160;-44
2023/10/31 11:34:18;;;;;;;;;;;14.20;60.70;;;;;;4990620;28;87377;-42
2023/10/31 11:36:44;;;;;;;;;;;14.20;60.50;;;;;;4990398;28;88016;-44
2023/10/31 11:39:12;;;;;;;;;;;14.20;60.50;;;;;;4991414;28;87623;-44
2023/10/31 11:41:38;;;;;;;;;;;14.20;60.40;;;;;;4986555;28;88045;-43
2023/10/31 11:44:04;;;;;;;;;;;14.20;60.60;;;;;;4993180;28;86993;-44
2023/10/31 11:46:29;;;;;;;;;;;14.20;60.50;;;;;;4990294;28;87327;-44
2023/10/31 11:48:55;;;;;;;;;;;14.20;60.30;;;;;;4988321;28;89267;-44
2023/10/31 11:51:22;;;;;;;;;;;14.20;60.50;;;;;;4989306;28;87135;-44
2023/10/31 11:53:49;;;;;;;;;;;14.30;60.60;;;;;;4990827;28;87965;-44
2023/10/31 11:56:15;;;;;;;;;;;14.30;60.50;;;;;;4991093;28;87938;-43
2023/10/31 11:58:41;;;;;;;;;;;14.30;60.40;;;;;;4990529;28;87087;-43
2023/10/31 12:01:10;;;;;;;;;;;14.30;60.60;;;;;;4991979;28;87310;-44
2023/10/31 12:03:40;;;;;;;;;;;14.40;60.60;;;;;;4990154;28;87162;-44
2023/10/31 12:06:06;;;;;;;;;;;14.40;60.60;;;;;;4988028;28;87069;-45
2023/10/31 12:08:38;;;;;;;;;;;14.40;60.50;;;;;;4987350;28;89262;-44
2023/10/31 12:11:04;;;;;;;;;;;14.40;60.60;;;;;;4996063;28;86654;-43
2023/10/31 12:13:29;;;;;;;;;;;14.40;60.50;;;;;;4993079;28;89062;-44
2023/10/31 12:15:55;;;;;;;;;;;14.40;60.50;;;;;;4992038;28;88176;-44
2023/10/31 12:18:20;;;;;;;;;;;14.40;60.70;;;;;;4992043;28;88111;-44
2023/10/31 12:20:51;;;;;;;;;;;14.40;60.60;;;;;;4994842;28;88312;-44
2023/10/31 12:23:19;;;;;;;;;;;14.50;60.60;;;;;;4997376;28;89736;-43
2023/10/31 12:25:45;;;;;;;;;;;14.50;60.60;;;;;;4993236;28;87727;-43
2023/10/31 12:28:16;;;;;;;;;;;14.50;61.10;;;;;;4993098;28;88153;-44
2023/10/31 12:30:46;;;;;;;;;;;14.50;60.40;;;;;;4993321;28;87145;-44
2023/10/31 12:33:12;;;;;;;;;;;14.60;60.60;;;;;;4991713;28;87304;-44
2023/10/31 12:35:38;;;;;;;;;;;14.50;60.60;;;;;;4991373;28;87261;-44
2023/10/31 12:38:03;;;;;;;;;;;14.60;60.60;;;;;;4992954;28;87196;-43
2023/10/31 12:40:29;;;;;;;;;;;14.60;60.60;;;;;;4995862;28;88252;-43
2023/10/31 12:42:54;;;;;;;;;;;14.60;60.50;;;;;;4992320;28;88140;-44
2023/10/31 12:45:20;;;;;;;;;;;14.60;60.40;;;;;;4991425;28;88123;-43
2023/10/31 12:48:00;;;;;;;;;;;14.60;60.30;;;;;;4994573;28;88801;-45
2023/10/31 12:50:25;;;;;;;;;;;14.60;60.40;;;;;;4991957;28;88205;-44
2023/10/31 12:52:52;;;;;;;;;;;14.60;60.40;;;;;;4991398;28;88055;-43
2023/10/31 12:55:19;;;;;;;;;;;14.70;60.50;;;;;;4991522;28;89102;-43
2023/10/31 12:57:46;;;;;;;;;;;14.70;60.30;;;;;;4995695;28;87195;-44
2023/10/31 13:00:12;;;;;;;;;;;14.70;60.30;;;;;;4990131;28;87340;-43
2023/10/31 13:02:39;;;;;;;;;;;14.70;60.50;;;;;;4989428;28;89765;-43
2023/10/31 13:05:12;;;;;;;;;;;14.70;60.40;;;;;;4997770;28;87181;-45
2023/10/31 13:07:38;;;;;;;;;;;14.70;60.30;;;;;;4994024;28;88905;-45
2023/10/31 13:10:09;;;;;;;;;;;14.80;60.30;;;;;;4989117;28;87376;-44
2023/10/31 13:12:34;;;;;;;;;;;14.80;60.30;;;;;;4990208;28;88192;-43
2023/10/31 13:15:01;;;;;;;;;;;14.80;60.40;;;;;;4992774;28;88292;-44
2023/10/31 13:17:27;;;;;;;;;;;14.80;60.20;;;;;;4994445;28;88230;-44
2023/10/31 13:19:52;;;;;;;;;;;14.90;60.10;;;;;;4990076;28;89576;-43
2023/10/31 13:22:18;;;;;;;;;;;14.90;60.10;;;;;;4991077;28;88118;-44
2023/10/31 13:24:43;;;;;;;;;;;14.90;60.20;;;;;;4992804;28;86457;-43
2023/10/31 13:27:14;;;;;;;;;;;14.90;60.30;;;;;;4995508;28;88391;-45
2023/10/31 13:29:39;;;;;;;;;;;14.90;60.20;;;;;;4988681;28;88444;-45
2023/10/31 13:32:05;;;;;;;;;;;15.00;60.20;;;;;;4993054;28;87979;-43
2023/10/31 13:34:32;;;;;;;;;;;14.90;60.00;;;;;;4992480;28;87355;-43
2023/10/31 13:36:58;;;;;;;;;;;14.90;60.10;;;;;;4989874;28;87119;-44
2023/10/31 13:39:24;;;;;;;;;;;14.90;60.10;;;;;;4992303;28;87568;-46
2023/10/31 13:41:49;;;;;;;;;;;15.00;60.10;;;;;;4991521;28;88196;-44
2023/10/31 13:44:15;;;;;;;;;;;15.00;59.90;;;;;;4994891;28;87078;-44
2023/10/31 13:46:40;;;;;;;;;;;15.00;60.10;;;;;;4990301;28;87746;-44
2023/10/31 13:49:07;;;;;;;;;;;15.00;60.10;;;;;;4994309;28;87224;-43
2023/10/31 13:51:32;;;;;;;;;;;15.00;59.90;;;;;;4993243;28;87818;-44
2023/10/31 13:53:58;;;;;;;;;;;15.00;60.00;;;;;;4988560;28;88484;-44
2023/10/31 13:56:24;;;;;;;;;;;15.10;60.10;;;;;;4990648;28;88344;-43
2023/10/31 13:58:49;;;;;;;;;;;15.10;60.10;;;;;;4989269;28;89015;-44
2023/10/31 14:01:15;;;;;;;;;;;15.10;60.00;;;;;;4994118;28;87395;-45
2023/10/31 14:03:40;;;;;;;;;;;15.10;60.20;;;;;;4991036;28;87136;-48
2023/10/31 14:06:06;;;;;;;;;;;15.10;60.10;;;;;;4988811;28;87423;-45
2023/10/31 14:08:32;;;;;;;;;;;15.10;60.20;;;;;;4989530;28;88142;-44